createdAt,value
2018-02-27T00:01:01.722Z,6.73
2018-02-27T00:03:27.930Z,4.87
2018-02-27T00:05:54.959Z,6.03
2018-02-27T00:08:21.172Z,5.27
2018-02-27T00:10:47.383Z,6.87
2018-02-27T00:13:13.608Z,4.93
2018-02-27T00:15:39.822Z,6.57
2018-02-27T00:18:06.026Z,6.20
2018-02-27T00:20:33.004Z,6.53
2018-02-27T00:22:59.176Z,6.43
2018-02-27T00:25:26.051Z,11.13
2018-02-27T00:27:52.208Z,6.67
2018-02-27T00:30:18.373Z,11.47
2018-02-27T00:32:45.269Z,7.27
2018-02-27T00:35:11.411Z,4.90
2018-02-27T00:37:37.570Z,6.63
2018-02-27T00:40:03.809Z,10.60
2018-02-27T00:42:30.775Z,6.93
2018-02-27T00:44:56.989Z,6.80
2018-02-27T00:47:23.976Z,6.27
2018-02-27T00:49:50.109Z,7.70
2018-02-27T00:52:16.307Z,10.13
2018-02-27T00:54:42.460Z,9.70
2018-02-27T00:57:08.626Z,12.20
2018-02-27T00:59:34.822Z,9.93
2018-02-27T01:02:00.952Z,8.90
2018-02-27T01:04:27.160Z,4.50
2018-02-27T01:06:53.389Z,10.33
2018-02-27T01:09:19.631Z,4.40
2018-02-27T01:11:45.873Z,8.63
2018-02-27T01:14:12.074Z,6.43
2018-02-27T01:16:38.288Z,7.20
2018-02-27T01:19:04.421Z,5.83
2018-02-27T01:21:30.632Z,7.40
2018-02-27T01:23:56.819Z,6.17
2018-02-27T01:26:22.989Z,6.30
2018-02-27T01:28:49.114Z,6.57
2018-02-27T01:31:15.293Z,7.13
2018-02-27T01:33:41.529Z,4.37
2018-02-27T01:36:07.694Z,10.37
2018-02-27T01:38:33.844Z,7.80
2018-02-27T01:41:00.083Z,8.77
2018-02-27T01:43:26.385Z,6.40
2018-02-27T01:45:52.558Z,8.90
2018-02-27T01:48:18.754Z,6.13
2018-02-27T01:50:45.039Z,6.40
2018-02-27T01:53:11.979Z,12.63
2018-02-27T01:55:38.896Z,7.10
2018-02-27T01:58:05.116Z,10.20
2018-02-27T02:00:31.274Z,8.57
2018-02-27T02:02:57.514Z,9.90
2018-02-27T02:05:24.418Z,7.20
2018-02-27T02:07:50.588Z,8.60
2018-02-27T02:10:17.467Z,6.60
2018-02-27T02:12:43.614Z,11.57
2018-02-27T02:15:09.890Z,6.10
2018-02-27T02:17:36.843Z,6.60
2018-02-27T02:20:03.751Z,8.13
2018-02-27T02:22:29.948Z,8.40
2018-02-27T02:24:56.120Z,7.10
2018-02-27T02:27:22.318Z,7.40
2018-02-27T02:29:48.543Z,6.33
2018-02-27T02:32:14.784Z,10.23
2018-02-27T02:34:41.044Z,8.57
2018-02-27T02:37:07.946Z,8.50
2018-02-27T02:39:34.102Z,8.13
2018-02-27T02:44:59.335Z,8.10
2018-02-27T02:47:26.204Z,10.30
2018-02-27T02:49:52.430Z,13.53
2018-02-27T02:52:18.618Z,11.27
2018-02-27T02:54:44.800Z,8.97
2018-02-27T02:57:11.241Z,8.90
2018-02-27T02:59:37.396Z,5.33
2018-02-27T03:02:03.520Z,9.20
2018-02-27T03:04:29.673Z,10.47
2018-02-27T03:06:56.590Z,7.60
2018-02-27T03:09:22.806Z,5.80
2018-02-27T03:11:48.956Z,8.50
2018-02-27T03:14:15.219Z,7.37
2018-02-27T03:16:41.364Z,4.90
2018-02-27T03:19:07.526Z,5.20
2018-02-27T03:21:33.775Z,8.33
2018-02-27T03:24:00.002Z,6.73
2018-02-27T03:26:26.195Z,8.70
2018-02-27T03:28:52.421Z,8.30
2018-02-27T03:31:18.668Z,10.43
2018-02-27T03:33:44.846Z,7.00
2018-02-27T03:36:11.734Z,8.27
2018-02-27T03:38:37.896Z,8.90
2018-02-27T03:41:04.804Z,6.43
2018-02-27T03:43:31.043Z,12.70
2018-02-27T03:45:57.272Z,5.30
2018-02-27T03:48:23.445Z,7.67
2018-02-27T03:50:49.568Z,7.97
2018-02-27T03:53:15.769Z,6.73
2018-02-27T03:55:41.934Z,7.83
2018-02-27T03:58:08.078Z,7.20
2018-02-27T04:00:34.236Z,11.00
2018-02-27T04:03:00.443Z,9.10
2018-02-27T04:05:26.644Z,10.43
2018-02-27T04:07:52.880Z,8.60
2018-02-27T04:10:19.084Z,16.90
2018-02-27T04:12:46.027Z,8.60
2018-02-27T04:15:12.218Z,12.07
2018-02-27T04:17:38.454Z,15.83
2018-02-27T04:20:04.619Z,10.20
2018-02-27T04:22:30.739Z,13.07
2018-02-27T04:24:56.933Z,12.47
2018-02-27T04:27:23.112Z,16.93
2018-02-27T04:29:49.300Z,13.40
2018-02-27T04:32:15.488Z,11.93
2018-02-27T04:34:41.663Z,14.27
2018-02-27T04:37:08.577Z,10.60
2018-02-27T04:39:34.790Z,12.53
2018-02-27T04:42:00.949Z,8.93
2018-02-27T04:44:27.886Z,10.10
2018-02-27T04:46:54.065Z,10.57
2018-02-27T04:49:20.239Z,13.77
2018-02-27T04:51:46.436Z,11.60
2018-02-27T04:54:12.579Z,15.70
2018-02-27T04:56:38.735Z,11.67
2018-02-27T04:59:05.678Z,12.23
2018-02-27T05:01:32.599Z,13.27
2018-02-27T05:03:58.765Z,11.47
2018-02-27T05:06:25.731Z,17.83
2018-02-27T05:08:51.908Z,12.37
2018-02-27T05:11:18.835Z,14.90
2018-02-27T05:13:45.057Z,12.13
2018-02-27T05:16:11.278Z,20.13
2018-02-27T05:18:37.479Z,14.43
2018-02-27T05:21:03.718Z,16.93
2018-02-27T05:23:29.858Z,14.93
2018-02-27T05:25:56.091Z,19.60
2018-02-27T05:28:22.284Z,14.13
2018-02-27T05:30:48.495Z,13.07
2018-02-27T05:33:15.377Z,14.40
2018-02-27T05:35:41.517Z,14.60
2018-02-27T05:38:07.692Z,14.57
2018-02-27T05:40:34.632Z,10.80
2018-02-27T05:43:01.658Z,13.67
2018-02-27T05:45:27.829Z,11.40
2018-02-27T05:47:54.035Z,13.30
2018-02-27T05:50:20.970Z,14.60
2018-02-27T05:52:47.903Z,13.20
2018-02-27T05:55:14.174Z,22.60
2018-02-27T05:57:40.335Z,13.37
2018-02-27T06:00:06.551Z,15.37
2018-02-27T06:02:32.783Z,13.73
2018-02-27T06:04:59.035Z,13.97
2018-02-27T06:07:25.245Z,12.13
2018-02-27T06:09:51.484Z,13.60
2018-02-27T06:12:17.987Z,17.23
2018-02-27T06:14:43.939Z,15.87
2018-02-27T06:17:10.090Z,15.67
2018-02-27T06:19:36.281Z,16.33
2018-02-27T06:22:02.474Z,14.70
2018-02-27T06:24:28.708Z,17.57
2018-02-27T06:26:54.943Z,24.23
2018-02-27T06:29:21.243Z,18.30
2018-02-27T06:31:48.164Z,19.20
2018-02-27T06:34:14.316Z,20.10
2018-02-27T06:36:41.330Z,18.70
2018-02-27T06:39:07.527Z,23.80
2018-02-27T06:41:33.748Z,16.50
2018-02-27T06:43:59.999Z,20.20
2018-02-27T06:46:26.144Z,18.13
2018-02-27T06:48:52.318Z,22.80
2018-02-27T06:51:18.517Z,21.30
2018-02-27T06:53:45.502Z,18.17
2018-02-27T06:56:11.713Z,19.87
2018-02-27T06:58:37.897Z,17.77
2018-02-27T07:01:04.096Z,22.40
2018-02-27T07:03:30.289Z,22.47
2018-02-27T07:05:57.248Z,21.03
2018-02-27T07:08:23.413Z,21.43
2018-02-27T07:10:49.576Z,20.43
2018-02-27T07:13:15.754Z,19.47
2018-02-27T07:15:42.002Z,19.63
2018-02-27T07:18:08.232Z,19.50
2018-02-27T07:20:34.459Z,15.57
2018-02-27T07:23:07.699Z,18.93
2018-02-27T07:25:34.649Z,19.27
2018-02-27T07:28:01.528Z,17.80
2018-02-27T07:30:27.744Z,20.73
2018-02-27T07:32:54.016Z,17.97
2018-02-27T07:35:20.252Z,20.10
2018-02-27T07:37:46.452Z,21.63
2018-02-27T07:40:12.591Z,18.70
2018-02-27T07:42:38.815Z,23.93
2018-02-27T07:45:05.013Z,24.60
2018-02-27T07:47:31.216Z,17.67
2018-02-27T07:49:57.404Z,18.40
2018-02-27T07:52:23.649Z,22.07
2018-02-27T07:54:50.535Z,19.30
2018-02-27T07:57:16.734Z,19.50
2018-02-27T07:59:42.946Z,20.37
2018-02-27T08:02:09.966Z,18.87
2018-02-27T08:04:36.131Z,22.47
2018-02-27T08:07:03.018Z,17.47
2018-02-27T08:09:30.181Z,22.13
2018-02-27T08:11:56.402Z,21.10
2018-02-27T08:14:22.587Z,20.57
2018-02-27T08:16:49.599Z,24.97
2018-02-27T08:19:15.811Z,20.77
2018-02-27T08:21:42.000Z,21.90
2018-02-27T08:24:08.204Z,24.67
2018-02-27T08:26:35.150Z,22.57
2018-02-27T08:29:02.125Z,22.67
2018-02-27T08:31:28.323Z,24.10
2018-02-27T08:33:55.090Z,19.93
2018-02-27T08:36:21.254Z,18.57
2018-02-27T08:38:47.401Z,25.63
2018-02-27T08:41:13.586Z,26.43
2018-02-27T08:43:39.822Z,19.73
2018-02-27T08:46:06.065Z,23.87
2018-02-27T08:48:32.374Z,24.00
2018-02-27T08:50:58.706Z,22.57
2018-02-27T08:53:24.882Z,25.40
2018-02-27T08:55:51.859Z,22.17
2018-02-27T08:58:18.069Z,27.77
2018-02-27T09:00:45.057Z,22.60
2018-02-27T09:03:11.202Z,22.10
2018-02-27T09:05:37.339Z,24.07
2018-02-27T09:08:03.556Z,25.50
2018-02-27T09:10:30.534Z,24.07
2018-02-27T09:12:57.481Z,20.40
2018-02-27T09:15:24.401Z,24.20
2018-02-27T09:17:51.322Z,25.07
2018-02-27T09:20:17.492Z,25.50
2018-02-27T09:22:44.459Z,25.13
2018-02-27T09:25:10.663Z,24.97
2018-02-27T09:27:37.625Z,22.97
2018-02-27T09:30:03.862Z,25.40
2018-02-27T09:32:30.071Z,24.43
2018-02-27T09:34:57.088Z,25.03
2018-02-27T09:37:23.254Z,28.37
2018-02-27T09:39:50.229Z,25.97
2018-02-27T09:42:16.474Z,23.30
2018-02-27T09:44:42.710Z,26.57
2018-02-27T09:47:08.968Z,24.63
2018-02-27T09:49:35.917Z,25.37
2018-02-27T09:52:02.870Z,25.27
2018-02-27T09:54:29.778Z,25.50
2018-02-27T09:56:55.942Z,24.87
2018-02-27T09:59:22.887Z,25.10
2018-02-27T10:01:49.773Z,22.70
2018-02-27T10:04:16.052Z,24.00
2018-02-27T10:06:42.285Z,24.90
2018-02-27T10:09:09.196Z,26.47
2018-02-27T10:11:35.394Z,23.90
2018-02-27T10:14:01.550Z,23.53
2018-02-27T10:16:27.760Z,28.97
2018-02-27T10:18:53.909Z,25.93
2018-02-27T10:21:20.199Z,22.83
2018-02-27T10:23:46.335Z,23.70
2018-02-27T10:26:12.539Z,26.33
2018-02-27T10:28:39.560Z,22.53
2018-02-27T10:31:06.481Z,28.80
2018-02-27T10:33:32.645Z,22.10
2018-02-27T10:35:59.838Z,22.83
2018-02-27T10:38:26.013Z,26.23
2018-02-27T10:40:52.162Z,25.43
2018-02-27T10:43:18.405Z,27.73
2018-02-27T10:45:44.542Z,24.27
2018-02-27T10:48:10.755Z,27.50
2018-02-27T10:50:36.991Z,28.13
2018-02-27T10:53:03.128Z,23.97
2018-02-27T10:55:29.335Z,25.30
2018-02-27T10:57:55.708Z,26.37
2018-02-27T11:00:27.930Z,24.90
2018-02-27T11:02:54.176Z,26.40
2018-02-27T11:05:20.335Z,27.87
2018-02-27T11:07:46.493Z,27.50
2018-02-27T11:10:13.387Z,25.13
2018-02-27T11:12:39.562Z,25.73
2018-02-27T11:15:06.485Z,25.07
2018-02-27T11:17:32.661Z,27.07
2018-02-27T11:19:58.868Z,23.17
2018-02-27T11:22:25.891Z,23.67
2018-02-27T11:24:52.815Z,24.47
2018-02-27T11:27:19.041Z,24.53
2018-02-27T11:29:45.262Z,25.33
2018-02-27T11:32:11.459Z,22.70
2018-02-27T11:34:37.636Z,27.70
2018-02-27T11:37:03.792Z,26.73
2018-02-27T11:39:30.690Z,24.80
2018-02-27T11:41:56.891Z,26.70
2018-02-27T11:44:23.075Z,27.87
2018-02-27T11:46:50.063Z,24.73
2018-02-27T11:49:16.293Z,26.37
2018-02-27T11:51:42.524Z,24.13
2018-02-27T11:54:08.668Z,23.80
2018-02-27T11:56:34.811Z,24.80
2018-02-27T11:59:00.983Z,28.73
2018-02-27T12:01:27.184Z,24.93
2018-02-27T12:03:54.114Z,24.80
2018-02-27T12:06:20.306Z,27.87
2018-02-27T12:08:46.475Z,22.53
2018-02-27T12:11:12.612Z,23.67
2018-02-27T12:13:39.581Z,23.60
2018-02-27T12:16:06.449Z,26.40
2018-02-27T12:18:32.601Z,25.13
2018-02-27T12:20:58.732Z,24.60
2018-02-27T12:23:24.943Z,29.00
2018-02-27T12:25:51.076Z,33.50
2018-02-27T12:28:17.286Z,28.80
2018-02-27T12:30:43.465Z,26.67
2018-02-27T12:33:10.387Z,26.37
2018-02-27T12:35:36.583Z,23.27
2018-02-27T12:38:02.748Z,23.57
2018-02-27T12:40:28.936Z,24.13
2018-02-27T12:42:55.132Z,24.33
2018-02-27T12:45:22.032Z,22.53
2018-02-27T12:47:48.289Z,40.03
2018-02-27T12:50:14.521Z,24.90
2018-02-27T12:52:41.446Z,24.63
2018-02-27T12:55:07.688Z,29.60
2018-02-27T12:57:34.667Z,25.63
2018-02-27T13:00:00.850Z,24.07
2018-02-27T13:02:27.087Z,22.70
2018-02-27T13:04:54.027Z,23.10
2018-02-27T13:07:20.151Z,22.63
2018-02-27T13:09:46.296Z,22.40
2018-02-27T13:12:13.217Z,21.90
2018-02-27T13:14:39.431Z,18.90
2018-02-27T13:17:05.662Z,25.97
2018-02-27T13:19:31.836Z,25.40
2018-02-27T13:21:58.737Z,24.10
2018-02-27T13:24:24.945Z,23.47
2018-02-27T13:26:51.120Z,26.00
2018-02-27T13:29:17.295Z,23.20
2018-02-27T13:31:43.415Z,24.50
2018-02-27T13:34:09.613Z,23.20
2018-02-27T13:36:36.469Z,19.67
2018-02-27T13:39:02.668Z,22.63
2018-02-27T13:41:29.603Z,23.70
2018-02-27T13:43:56.548Z,20.57
2018-02-27T13:46:22.728Z,26.00
2018-02-27T13:48:48.934Z,21.97
2018-02-27T13:51:15.161Z,19.40
2018-02-27T13:53:42.072Z,20.50
2018-02-27T13:56:09.003Z,28.87
2018-02-27T13:58:35.228Z,22.70
2018-02-27T14:01:01.439Z,16.80
2018-02-27T14:03:27.585Z,21.13
2018-02-27T14:05:53.741Z,24.57
2018-02-27T14:08:19.920Z,23.10
2018-02-27T14:10:46.097Z,26.23
2018-02-27T14:13:12.273Z,24.00
2018-02-27T14:15:38.419Z,20.43
2018-02-27T14:18:04.588Z,20.30
2018-02-27T14:20:31.492Z,21.37
2018-02-27T14:22:57.686Z,22.30
2018-02-27T14:25:23.948Z,21.80
2018-02-27T14:27:50.203Z,23.20
2018-02-27T14:30:17.192Z,23.17
2018-02-27T14:32:43.372Z,29.10
2018-02-27T14:35:09.550Z,24.70
2018-02-27T14:37:35.748Z,22.60
2018-02-27T14:40:02.712Z,31.20
2018-02-27T14:42:28.847Z,23.13
2018-02-27T14:44:54.979Z,25.80
2018-02-27T14:47:21.207Z,19.00
2018-02-27T14:49:47.443Z,19.23
2018-02-27T14:52:13.668Z,21.07
2018-02-27T14:54:39.866Z,25.00
2018-02-27T14:57:06.038Z,25.33
2018-02-27T14:59:32.198Z,24.17
2018-02-27T15:01:59.082Z,25.97
2018-02-27T15:04:25.248Z,23.10
2018-02-27T15:06:52.175Z,29.40
2018-02-27T15:09:18.337Z,23.20
2018-02-27T15:11:45.242Z,23.20
2018-02-27T15:14:11.449Z,23.20
2018-02-27T15:16:37.646Z,22.90
2018-02-27T15:19:04.519Z,22.47
2018-02-27T15:21:30.687Z,22.80
2018-02-27T15:23:56.843Z,23.20
2018-02-27T15:26:23.758Z,20.57
2018-02-27T15:28:50.012Z,21.77
2018-02-27T15:31:16.932Z,24.43
2018-02-27T15:33:43.154Z,22.13
2018-02-27T15:36:10.160Z,25.40
2018-02-27T15:38:36.346Z,21.37
2018-02-27T15:41:02.513Z,27.13
2018-02-27T15:43:28.712Z,25.37
2018-02-27T15:45:54.884Z,19.43
2018-02-27T15:48:21.070Z,21.93
2018-02-27T15:50:47.997Z,24.20
2018-02-27T15:53:14.928Z,24.73
2018-02-27T15:55:41.134Z,25.60
2018-02-27T15:58:07.323Z,22.67
2018-02-27T16:00:34.233Z,23.53
2018-02-27T16:03:00.417Z,21.27
2018-02-27T16:05:26.675Z,20.23
2018-02-27T16:07:52.906Z,20.77
2018-02-27T16:10:19.100Z,22.17
2018-02-27T16:12:45.285Z,25.40
2018-02-27T16:15:12.180Z,28.10
2018-02-27T16:17:38.374Z,24.30
2018-02-27T16:20:05.278Z,22.80
2018-02-27T16:22:31.498Z,23.73
2018-02-27T16:24:57.676Z,20.33
2018-02-27T16:27:23.909Z,21.30
2018-02-27T16:29:50.133Z,24.10
2018-02-27T16:32:17.012Z,24.37
2018-02-27T16:34:43.148Z,28.20
2018-02-27T16:37:09.333Z,21.63
2018-02-27T16:39:35.546Z,24.20
2018-02-27T16:42:02.523Z,22.67
2018-02-27T16:44:28.742Z,20.33
2018-02-27T16:46:54.964Z,27.07
2018-02-27T16:49:21.148Z,23.60
2018-02-27T16:51:47.459Z,24.67
2018-02-27T16:54:13.624Z,26.60
2018-02-27T16:56:39.796Z,23.43
2018-02-27T16:59:06.159Z,24.57
2018-02-27T17:01:32.360Z,28.17
2018-02-27T17:03:58.563Z,24.53
2018-02-27T17:06:24.904Z,20.20
2018-02-27T17:08:51.115Z,29.00
2018-02-27T17:11:18.028Z,23.87
2018-02-27T17:13:44.283Z,21.10
2018-02-27T17:16:11.202Z,23.73
2018-02-27T17:18:37.346Z,26.53
2018-02-27T17:21:04.234Z,24.30
2018-02-27T17:23:30.383Z,17.53
2018-02-27T17:25:56.505Z,19.17
2018-02-27T17:28:22.732Z,25.27
2018-02-27T17:30:48.882Z,24.43
2018-02-27T17:33:15.070Z,23.60
2018-02-27T17:35:41.316Z,22.70
2018-02-27T17:38:07.542Z,22.13
2018-02-27T17:40:33.775Z,25.67
2018-02-27T17:43:00.021Z,17.20
2018-02-27T17:45:26.986Z,26.73
2018-02-27T17:47:53.920Z,24.03
2018-02-27T17:50:20.789Z,22.80
2018-02-27T17:52:47.716Z,26.90
2018-02-27T17:55:13.910Z,21.97
2018-02-27T17:57:40.117Z,29.90
2018-02-27T18:00:06.339Z,27.23
2018-02-27T18:02:32.518Z,19.30
2018-02-27T18:04:58.725Z,19.43
2018-02-27T18:07:24.971Z,22.43
2018-02-27T18:09:51.176Z,23.70
2018-02-27T18:12:17.379Z,17.70
2018-02-27T18:14:43.548Z,32.70
2018-02-27T18:17:09.758Z,22.73
2018-02-27T18:19:35.967Z,26.60
2018-02-27T18:22:02.188Z,30.30
2018-02-27T18:24:28.428Z,30.57
2018-02-27T18:26:54.567Z,25.63
2018-02-27T18:29:20.709Z,33.90
2018-02-27T18:31:46.888Z,25.10
2018-02-27T18:34:13.041Z,71.73
2018-02-27T18:36:39.506Z,59.53
2018-02-27T18:39:05.644Z,40.57
2018-02-27T18:41:32.567Z,90.80
2018-02-27T18:43:58.934Z,63.60
2018-02-27T18:46:25.055Z,59.33
2018-02-27T18:48:51.252Z,67.93
2018-02-27T18:51:17.392Z,50.90
2018-02-27T18:53:44.316Z,60.23
2018-02-27T18:56:10.549Z,38.73
2018-02-27T18:58:36.692Z,57.37
2018-02-27T19:01:03.635Z,53.97
2018-02-27T19:03:30.674Z,133.57
2018-02-27T19:05:56.956Z,43.23
2018-02-27T19:08:23.171Z,37.80
2018-02-27T19:10:51.251Z,29.30
2018-02-27T19:13:21.204Z,39.60
2018-02-27T19:15:47.470Z,55.23
2018-02-27T19:18:14.425Z,55.03
2018-02-27T19:20:40.589Z,53.83
2018-02-27T19:23:06.820Z,46.27
2018-02-27T19:25:33.047Z,30.30
2018-02-27T19:27:59.205Z,34.77
2018-02-27T19:30:25.412Z,34.20
2018-02-27T19:32:51.667Z,31.23
2018-02-27T19:35:18.649Z,33.40
2018-02-27T19:37:44.888Z,30.63
2018-02-27T19:40:11.101Z,32.30
2018-02-27T19:42:37.266Z,33.10
2018-02-27T19:45:03.487Z,36.43
2018-02-27T19:47:29.671Z,36.60
2018-02-27T19:49:55.878Z,39.97
2018-02-27T19:52:22.103Z,28.50
2018-02-27T19:54:48.347Z,32.30
2018-02-27T19:57:15.299Z,27.90
2018-02-27T19:59:41.557Z,28.80
2018-02-27T20:02:07.919Z,28.27
2018-02-27T20:04:34.148Z,33.50
2018-02-27T20:07:00.483Z,39.03
2018-02-27T20:09:27.478Z,32.70
2018-02-27T20:11:53.723Z,30.80
2018-02-27T20:14:26.169Z,34.20
2018-02-27T20:16:53.135Z,30.17
2018-02-27T20:19:20.011Z,33.73
2018-02-27T20:21:46.199Z,29.30
2018-02-27T20:24:18.348Z,32.33
2018-02-27T20:26:45.285Z,26.90
2018-02-27T20:29:18.231Z,29.37
2018-02-27T20:31:44.439Z,27.33
2018-02-27T20:34:10.616Z,28.83
2018-02-27T20:36:36.788Z,36.30
2018-02-27T20:39:09.209Z,30.97
2018-02-27T20:41:35.390Z,29.53
2018-02-27T20:44:01.592Z,31.70
2018-02-27T20:46:28.522Z,30.13
2018-02-27T20:48:54.748Z,36.00
2018-02-27T20:51:21.723Z,37.73
2018-02-27T20:53:47.871Z,28.80
2018-02-27T20:56:14.013Z,36.90
2018-02-27T20:58:40.296Z,37.30
2018-02-27T21:01:06.561Z,32.37
2018-02-27T21:03:32.823Z,35.10
2018-02-27T21:05:59.075Z,31.57
2018-02-27T21:08:26.145Z,32.00
2018-02-27T21:10:52.428Z,33.57
2018-02-27T21:13:18.656Z,37.03
2018-02-27T21:15:44.859Z,33.70
2018-02-27T21:18:11.126Z,35.30
2018-02-27T21:20:38.131Z,39.70
2018-02-27T21:23:04.451Z,28.93
2018-02-27T21:25:30.654Z,37.10
2018-02-27T21:27:56.852Z,38.50
2018-02-27T21:30:23.114Z,32.70
2018-02-27T21:32:49.975Z,45.93
2018-02-27T21:35:16.344Z,63.23
2018-02-27T21:37:42.559Z,47.47
2018-02-27T21:40:08.744Z,42.90
2018-02-27T21:42:34.973Z,37.27
2018-02-27T21:45:01.152Z,25.73
2018-02-27T21:47:27.269Z,29.17
2018-02-27T21:49:53.448Z,27.40
2018-02-27T21:52:19.652Z,32.20
2018-02-27T21:54:46.591Z,30.13
2018-02-27T21:57:13.557Z,30.83
2018-02-27T21:59:40.501Z,31.63
2018-02-27T22:02:07.381Z,30.17
2018-02-27T22:04:33.525Z,25.27
2018-02-27T22:06:59.703Z,34.93
2018-02-27T22:09:26.646Z,31.73
2018-02-27T22:11:53.538Z,29.90
2018-02-27T22:14:19.742Z,32.43
2018-02-27T22:16:45.977Z,37.70
2018-02-27T22:19:12.246Z,29.30
2018-02-27T22:21:38.378Z,26.47
2018-02-27T22:24:04.561Z,29.70
2018-02-27T22:26:30.716Z,25.63
2018-02-27T22:28:56.897Z,32.73
2018-02-27T22:31:23.037Z,32.90
2018-02-27T22:33:49.186Z,28.20
2018-02-27T22:36:15.384Z,32.37
2018-02-27T22:38:41.534Z,34.33
2018-02-27T22:41:07.726Z,33.30
2018-02-27T22:43:33.918Z,34.97
2018-02-27T22:46:00.886Z,26.50
2018-02-27T22:48:27.856Z,33.37
2018-02-27T22:50:54.028Z,25.80
2018-02-27T22:53:20.165Z,25.97
2018-02-27T22:55:46.340Z,34.77
2018-02-27T22:58:12.534Z,31.90
2018-02-27T23:00:39.490Z,32.83
2018-02-27T23:03:06.542Z,30.50
2018-02-27T23:05:32.718Z,40.33
2018-02-27T23:07:58.972Z,36.90
2018-02-27T23:10:32.926Z,29.63
2018-02-27T23:12:59.133Z,33.40
2018-02-27T23:15:26.044Z,33.23
2018-02-27T23:17:52.261Z,33.73
2018-02-27T23:20:18.452Z,22.87
2018-02-27T23:22:44.604Z,31.60
2018-02-27T23:25:20.033Z,33.10
2018-02-27T23:27:51.594Z,32.27
2018-02-27T23:30:19.936Z,24.67
2018-02-27T23:32:47.848Z,30.60
2018-02-27T23:35:23.649Z,26.30
2018-02-27T23:37:50.651Z,30.47
2018-02-27T23:40:16.928Z,25.13
2018-02-27T23:42:43.876Z,27.33
2018-02-27T23:45:10.125Z,24.23
2018-02-27T23:47:36.326Z,30.13
2018-02-27T23:50:03.244Z,34.17
2018-02-27T23:52:29.394Z,26.20
2018-02-27T23:54:56.321Z,24.50
2018-02-27T23:57:22.457Z,24.47
2018-02-27T23:59:48.629Z,24.27
